Terminal Aerodrome Forecast
Issued by NWS

Current Version | Previous Version | Text Only | Print | Product List | Glossary Off
Versions: 1 2 3 4 5 6 7 8 9 10 11 12 13 14 15 16 17 18 19 20 21 22 23 24

000
FTUS41 KPBZ 302300
TAFHLG
TAF
KHLG 302331Z 3100/3124 31010KT 6SM -SHSN SCT025 BKN035
      TEMPO 3100/3103 4SM -SHSN BKN025
     FM310800 28005KT P6SM SCT080
     FM311600 24006KT P6SM SCT035=

USA.gov is the U.S. government's official web portal to all federal, state and local government web resources and services.